Time;durP1;ratioP1;P1;durP2;ratioP2;P2;SDS_P1;SDS_P2;PMS_P1;PMS_P2;Temp;Humidity;BMP_temperature;BMP_pressure;BME280_temperature;BME280_humidity;BME280_pressure;Samples;Min_cycle;Max_cycle;Signal;HPM_P1;HPM_P2
2021/03/04 00:01:58;;;;;;;49.65;29.48;;;;;;;9.43;100.00;102130.03;4864574;29;20029;-72
2021/03/04 00:04:44;;;;;;;46.40;26.45;;;;;;;9.55;100.00;102127.53;4864395;29;20048;-72
2021/03/04 00:07:30;;;;;;;48.78;27.52;;;;;;;9.58;100.00;102126.69;4865041;29;20045;-73
2021/03/04 00:10:20;;;;;;;41.05;24.52;;;;;;;9.52;100.00;102118.75;4864594;29;20076;-72
2021/03/04 00:13:05;;;;;;;42.13;26.25;;;;;;;9.41;100.00;102109.94;4864459;29;20416;-73
2021/03/04 00:15:53;;;;;;;47.63;28.75;;;;;;;9.51;100.00;102117.00;4865194;29;20026;-73
2021/03/04 00:18:39;;;;;;;45.10;27.00;;;;;;;9.25;100.00;102102.81;4863145;29;20089;-72
2021/03/04 00:21:25;;;;;;;51.08;30.50;;;;;;;8.84;100.00;102102.38;4864167;29;20463;-72
2021/03/04 00:24:11;;;;;;;52.92;28.60;;;;;;;9.06;100.00;102093.91;4864039;29;20038;-72
2021/03/04 00:26:57;;;;;;;42.92;24.52;;;;;;;8.72;100.00;102085.69;4864595;29;20026;-73
2021/03/04 00:29:42;;;;;;;44.60;26.25;;;;;;;9.28;100.00;102084.53;4864194;29;20449;-72
2021/03/04 00:32:28;;;;;;;36.80;22.10;;;;;;;9.40;100.00;102069.84;4863433;29;20030;-73
2021/03/04 00:35:14;;;;;;;42.97;25.10;;;;;;;8.98;100.00;102079.88;4863857;29;20459;-73
2021/03/04 00:38:00;;;;;;;36.13;20.63;;;;;;;9.19;100.00;102079.22;4864005;29;20057;-73
2021/03/04 00:40:46;;;;;;;36.83;21.38;;;;;;;9.41;100.00;102076.81;4863437;29;20037;-72
2021/03/04 00:43:31;;;;;;;33.83;20.90;;;;;;;9.77;100.00;102077.09;4876081;29;20491;-73
2021/03/04 00:46:17;;;;;;;26.50;16.38;;;;;;;9.49;100.00;102064.66;4862700;29;20037;-73
2021/03/04 00:49:03;;;;;;;28.80;16.98;;;;;;;9.60;100.00;102073.50;4863529;29;20033;-73
2021/03/04 00:51:49;;;;;;;32.03;19.02;;;;;;;9.38;100.00;102065.44;4863653;29;20427;-73
2021/03/04 00:54:34;;;;;;;33.25;20.55;;;;;;;9.53;100.00;102065.59;4863561;29;20037;-72
2021/03/04 00:57:20;;;;;;;29.15;16.55;;;;;;;9.70;100.00;102061.34;4862954;29;20101;-73
2021/03/04 01:00:07;;;;;;;28.83;17.88;;;;;;;9.79;100.00;102048.34;4862426;29;20045;-73
2021/03/04 01:02:53;;;;;;;28.08;17.27;;;;;;;9.63;100.00;102051.69;4864075;29;20153;-72
2021/03/04 01:05:39;;;;;;;31.90;17.27;;;;;;;9.32;100.00;102041.84;4863314;29;20033;-73
2021/03/04 01:08:25;;;;;;;26.83;16.40;;;;;;;9.87;100.00;102037.06;4863488;29;20025;-73
2021/03/04 01:11:11;;;;;;;25.92;16.23;;;;;;;9.79;100.00;102023.03;4863252;29;20033;-73
2021/03/04 01:13:57;;;;;;;26.95;16.13;;;;;;;9.82;100.00;102017.81;4863421;29;20116;-72
2021/03/04 01:16:43;;;;;;;25.30;15.93;;;;;;;9.62;100.00;102019.41;4862571;29;20022;-72
2021/03/04 01:19:28;;;;;;;29.23;16.52;;;;;;;9.70;100.00;102016.88;4863351;29;20037;-72
2021/03/04 01:22:14;;;;;;;25.35;14.98;;;;;;;9.50;100.00;102014.13;4863466;29;20055;-74
2021/03/04 01:25:00;;;;;;;25.42;15.75;;;;;;;9.48;100.00;102015.84;4863027;29;20068;-72
2021/03/04 01:27:47;;;;;;;27.58;16.33;;;;;;;9.39;100.00;102001.81;4862544;29;20037;-72
2021/03/04 01:30:33;;;;;;;26.98;15.32;;;;;;;9.41;100.00;101997.47;4862883;29;20025;-72
2021/03/04 01:33:19;;;;;;;24.20;15.85;;;;;;;9.43;100.00;102009.69;4862470;29;20044;-72
2021/03/04 01:36:05;;;;;;;26.92;16.25;;;;;;;9.41;100.00;102007.94;4863343;29;20025;-72
2021/03/04 01:38:51;;;;;;;27.10;15.70;;;;;;;9.52;100.00;102001.03;4863351;29;20033;-72
2021/03/04 01:41:37;;;;;;;25.67;15.82;;;;;;;9.46;100.00;101996.66;4862742;29;20038;-73
2021/03/04 01:44:23;;;;;;;30.88;16.83;;;;;;;9.60;100.00;102004.56;4862866;29;20034;-72
2021/03/04 01:47:08;;;;;;;27.67;16.75;;;;;;;9.25;100.00;102006.91;4862372;29;20473;-74
2021/03/04 01:49:54;;;;;;;28.30;16.80;;;;;;;9.18;100.00;102001.63;4862309;29;20137;-73
2021/03/04 01:52:41;;;;;;;27.73;16.27;;;;;;;9.07;100.00;102003.28;4861370;29;20375;-73
2021/03/04 01:55:27;;;;;;;27.65;16.65;;;;;;;9.20;100.00;102008.63;4862773;29;20033;-72
2021/03/04 01:58:14;;;;;;;27.92;16.55;;;;;;;9.05;100.00;102003.25;4862070;29;20043;-72
2021/03/04 02:00:59;;;;;;;29.40;17.27;;;;;;;8.74;100.00;101997.72;4861920;29;20112;-72
2021/03/04 02:03:45;;;;;;;28.80;16.98;;;;;;;8.34;100.00;101992.91;4862295;29;20068;-72
2021/03/04 02:06:50;;;;;;;29.83;17.50;;;;;;;8.44;100.00;101993.03;4862481;29;20055;-72
2021/03/04 02:09:39;;;;;;;30.02;17.30;;;;;;;8.49;100.00;101991.34;4862071;29;20029;-72
2021/03/04 02:12:52;;;;;;;28.00;16.35;;;;;;;8.41;100.00;101989.53;4862123;29;20033;-73
2021/03/04 02:15:45;;;;;;;29.60;17.70;;;;;;;8.59;100.00;101990.59;4861681;29;20471;-73
2021/03/04 02:18:36;;;;;;;27.88;16.38;;;;;;;8.62;100.00;101985.44;4862085;29;20097;-72
2021/03/04 02:21:31;;;;;;;29.20;17.38;;;;;;;8.73;100.00;101991.63;4862317;29;20021;-72
2021/03/04 02:24:34;;;;;;;29.92;17.13;;;;;;;8.73;100.00;101980.31;4862020;29;20339;-72
2021/03/04 02:27:24;;;;;;;28.75;16.38;;;;;;;8.43;100.00;101983.47;4862417;29;20117;-73
2021/03/04 02:30:37;;;;;;;29.73;16.85;;;;;;;8.64;100.00;101988.06;4862045;29;20029;-73
2021/03/04 02:33:27;;;;;;;29.55;16.63;;;;;;;8.70;100.00;101977.66;4861353;29;20036;-72
2021/03/04 02:36:13;;;;;;;29.40;16.95;;;;;;;8.77;100.00;101982.09;4860827;29;20076;-72
2021/03/04 02:39:01;;;;;;;26.85;16.30;;;;;;;8.85;100.00;101978.66;4861236;29;20049;-72
2021/03/04 02:41:47;;;;;;;27.75;16.65;;;;;;;8.75;100.00;101963.78;4861957;29;20096;-72
2021/03/04 02:44:33;;;;;;;29.77;16.63;;;;;;;8.37;100.00;101962.50;4862022;29;20086;-73
2021/03/04 02:47:23;;;;;;;28.25;16.58;;;;;;;8.66;100.00;101965.41;4861031;29;20117;-72
2021/03/04 02:50:10;;;;;;;26.30;15.38;;;;;;;8.70;100.00;101956.75;4860726;29;20474;-72
2021/03/04 02:52:57;;;;;;;26.20;15.77;;;;;;;8.82;100.00;101956.88;4860891;29;20088;-72
2021/03/04 02:55:43;;;;;;;26.73;16.77;;;;;;;8.56;100.00;101951.38;4860589;29;20076;-72
2021/03/04 02:58:30;;;;;;;29.23;16.42;;;;;;;8.76;100.00;101943.75;4860998;29;20045;-72
2021/03/04 03:01:17;;;;;;;26.13;15.45;;;;;;;8.54;100.00;101949.63;4861959;29;20120;-72
2021/03/04 03:04:04;;;;;;;28.45;16.88;;;;;;;8.86;100.00;101950.81;4848454;29;20117;-72
2021/03/04 03:06:52;;;;;;;27.13;16.40;;;;;;;8.55;100.00;101957.47;4861648;29;20129;-72
2021/03/04 03:09:41;;;;;;;26.95;15.82;;;;;;;8.50;100.00;101956.56;4874056;29;20395;-72
2021/03/04 03:12:27;;;;;;;28.13;16.67;;;;;;;8.69;100.00;101948.03;4862766;29;20052;-72
2021/03/04 03:15:16;;;;;;;26.95;15.73;;;;;;;8.48;100.00;101949.56;4865946;29;20108;-72
2021/03/04 03:18:02;;;;;;;27.70;16.90;;;;;;;8.67;100.00;101948.88;4865392;29;20030;-72
2021/03/04 03:20:47;;;;;;;29.67;17.27;;;;;;;8.77;100.00;101942.91;4878262;29;20459;-72
2021/03/04 03:23:33;;;;;;;28.90;16.75;;;;;;;8.69;100.00;101941.94;4865169;29;20033;-73
2021/03/04 03:26:19;;;;;;;30.25;17.25;;;;;;;8.47;100.00;101933.00;4865302;29;20044;-73
2021/03/04 03:29:05;;;;;;;31.98;16.35;;;;;;;8.26;100.00;101934.50;4864108;29;20038;-72
2021/03/04 03:31:53;;;;;;;29.95;17.13;;;;;;;8.17;100.00;101930.06;4865122;29;20033;-72
2021/03/04 03:34:40;;;;;;;29.02;17.52;;;;;;;8.35;100.00;101927.66;4865028;29;20044;-72
2021/03/04 03:37:26;;;;;;;28.73;17.20;;;;;;;8.03;100.00;101921.16;4865033;29;20066;-72
2021/03/04 03:40:14;;;;;;;29.20;17.40;;;;;;;8.25;100.00;101925.81;4864659;29;20490;-72
2021/03/04 03:43:03;;;;;;;27.83;17.35;;;;;;;7.98;100.00;101924.56;4864700;29;20045;-72
2021/03/04 03:45:51;;;;;;;28.38;17.38;;;;;;;8.40;100.00;101917.28;4864851;29;20120;-71
2021/03/04 03:48:37;;;;;;;29.38;17.30;;;;;;;8.12;100.00;101920.41;4864711;29;20033;-72
2021/03/04 03:51:23;;;;;;;31.48;17.52;;;;;;;8.06;100.00;101918.59;4865040;29;20061;-72
2021/03/04 03:54:09;;;;;;;30.25;18.40;;;;;;;8.56;100.00;101913.97;4876791;29;20048;-71
2021/03/04 03:56:56;;;;;;;29.95;18.08;;;;;;;8.55;100.00;101913.06;4864196;29;20048;-73
2021/03/04 03:59:44;;;;;;;29.75;17.90;;;;;;;8.44;100.00;101898.16;4864428;29;20450;-72
2021/03/04 04:02:30;;;;;;;31.00;17.83;;;;;;;8.28;100.00;101901.47;4863730;29;20140;-72
2021/03/04 04:05:16;;;;;;;29.83;17.17;;;;;;;8.29;100.00;101903.22;4864464;29;20417;-72
2021/03/04 04:08:02;;;;;;;27.25;16.63;;;;;;;8.30;100.00;101895.41;4876239;29;20120;-72
2021/03/04 04:10:48;;;;;;;28.83;16.90;;;;;;;8.50;100.00;101900.81;4864463;29;20040;-71
2021/03/04 04:13:34;;;;;;;28.35;16.90;;;;;;;8.07;100.00;101904.69;4863562;29;20451;-72
2021/03/04 04:16:20;;;;;;;30.05;16.92;;;;;;;8.38;100.00;101905.94;4864842;29;20056;-72
2021/03/04 04:19:07;;;;;;;28.88;16.40;;;;;;;8.29;100.00;101903.22;4863245;29;20438;-72
2021/03/04 04:21:53;;;;;;;27.42;16.13;;;;;;;8.42;100.00;101892.03;4864600;29;20063;-72
2021/03/04 04:24:39;;;;;;;28.98;17.25;;;;;;;8.51;100.00;101890.41;4862614;29;20049;-72
2021/03/04 04:27:26;;;;;;;29.33;16.40;;;;;;;8.63;100.00;101885.28;4863563;29;20036;-71
2021/03/04 04:30:12;;;;;;;27.23;16.52;;;;;;;8.49;100.00;101883.41;4876332;29;20041;-73
2021/03/04 04:32:57;;;;;;;28.63;17.48;;;;;;;8.37;100.00;101880.69;4863848;29;20025;-73
2021/03/04 04:35:43;;;;;;;27.25;15.55;;;;;;;8.42;100.00;101874.66;4862841;29;20026;-73
2021/03/04 04:38:29;;;;;;;26.17;16.90;;;;;;;8.23;100.00;101875.31;4862910;29;20059;-73
2021/03/04 04:41:15;;;;;;;27.27;16.13;;;;;;;8.19;100.00;101872.59;4863860;29;20103;-72
2021/03/04 04:44:01;;;;;;;27.88;16.30;;;;;;;8.36;100.00;101871.09;4862939;29;20467;-72
2021/03/04 04:46:47;;;;;;;28.92;17.42;;;;;;;8.38;100.00;101865.03;4863283;29;20053;-72
2021/03/04 04:49:32;;;;;;;31.33;17.35;;;;;;;8.44;100.00;101867.69;4863836;29;20527;-72
2021/03/04 04:52:18;;;;;;;28.48;17.40;;;;;;;8.55;100.00;101873.00;4862629;29;20061;-72
2021/03/04 04:55:05;;;;;;;28.38;17.38;;;;;;;8.52;100.00;101875.63;4862582;29;20018;-73
2021/03/04 04:57:51;;;;;;;31.92;17.13;;;;;;;8.34;100.00;101860.63;4863310;29;20037;-72
2021/03/04 05:00:36;;;;;;;28.42;16.98;;;;;;;8.67;100.00;101865.28;4862807;29;20034;-72
2021/03/04 05:03:22;;;;;;;30.17;17.75;;;;;;;8.64;100.00;101858.28;4863589;29;20431;-73
2021/03/04 05:06:09;;;;;;;27.88;17.65;;;;;;;8.60;100.00;101855.66;4863325;29;20026;-72
2021/03/04 05:08:55;;;;;;;28.73;17.13;;;;;;;8.26;100.00;101859.69;4876051;29;20048;-73
2021/03/04 05:11:41;;;;;;;35.40;18.60;;;;;;;8.09;100.00;101862.94;4863264;29;20475;-72
2021/03/04 05:14:26;;;;;;;29.95;18.38;;;;;;;8.37;100.00;101855.44;4863498;29;20116;-72
2021/03/04 05:17:12;;;;;;;33.25;19.27;;;;;;;8.09;100.00;101857.72;4862414;29;20454;-72
2021/03/04 05:19:58;;;;;;;36.83;19.48;;;;;;;8.08;100.00;101849.00;4863237;29;20108;-74
2021/03/04 05:22:44;;;;;;;35.75;20.33;;;;;;;8.35;100.00;101844.09;4862486;29;20033;-72
2021/03/04 05:25:30;;;;;;;35.75;19.98;;;;;;;8.44;100.00;101844.19;4862185;29;20029;-71
2021/03/04 05:28:15;;;;;;;37.45;19.95;;;;;;;8.21;100.00;101843.13;4862758;29;20360;-71
2021/03/04 05:31:01;;;;;;;35.30;19.52;;;;;;;8.16;100.00;101841.28;4862341;29;20121;-71
2021/03/04 05:33:47;;;;;;;34.85;20.00;;;;;;;7.96;100.00;101842.81;4861798;29;20379;-73
2021/03/04 05:36:33;;;;;;;35.55;19.30;;;;;;;8.43;100.00;101838.94;4861352;29;20021;-73
2021/03/04 05:39:18;;;;;;;40.17;20.73;;;;;;;8.16;100.00;101838.66;4863422;29;20450;-72
2021/03/04 05:42:06;;;;;;;43.17;21.60;;;;;;;8.54;100.00;101838.19;4861853;29;20029;-73
2021/03/04 05:44:52;;;;;;;40.30;20.85;;;;;;;8.32;100.00;101841.47;4862918;29;20364;-71
2021/03/04 05:47:43;;;;;;;39.78;21.48;;;;;;;8.18;100.00;101836.94;4874086;29;20056;-73
2021/03/04 05:50:30;;;;;;;37.22;20.85;;;;;;;8.26;100.00;101837.91;4874873;29;20108;-73
2021/03/04 05:53:19;;;;;;;35.88;19.70;;;;;;;8.52;100.00;101834.69;4861789;29;20511;-72
2021/03/04 05:56:06;;;;;;;36.50;19.98;;;;;;;8.42;100.00;101831.97;4862150;29;20033;-73
2021/03/04 05:58:52;;;;;;;38.63;19.95;;;;;;;8.73;100.00;101836.59;4862671;29;20037;-72
2021/03/04 06:01:38;;;;;;;37.80;19.88;;;;;;;8.68;100.00;101833.09;4862948;29;20411;-73
2021/03/04 06:04:25;;;;;;;34.85;18.73;;;;;;;9.07;100.00;101829.00;4862241;29;20361;-72
2021/03/04 06:07:11;;;;;;;38.03;18.98;;;;;;;9.10;100.00;101834.25;4862539;29;20030;-74
2021/03/04 06:09:57;;;;;;;38.85;20.15;;;;;;;9.00;100.00;101831.56;4861655;29;20040;-73
2021/03/04 06:12:43;;;;;;;39.70;20.13;;;;;;;8.52;100.00;101826.00;4862398;29;20040;-72
2021/03/04 06:15:29;;;;;;;36.47;19.85;;;;;;;8.20;100.00;101830.00;4862802;29;20022;-72
2021/03/04 06:18:14;;;;;;;42.20;21.35;;;;;;;8.83;100.00;101823.63;4861154;29;20029;-73
2021/03/04 06:21:01;;;;;;;46.33;20.33;;;;;;;8.35;100.00;101820.59;4862061;29;20332;-72
2021/03/04 06:23:47;;;;;;;36.30;20.15;;;;;;;8.70;100.00;101819.16;4862046;29;20041;-73
2021/03/04 06:26:37;;;;;;;35.22;19.52;;;;;;;9.00;100.00;101808.03;4861797;29;20459;-73
2021/03/04 06:29:26;;;;;;;35.38;20.13;;;;;;;9.09;100.00;101805.50;4862113;29;20070;-72
2021/03/04 06:32:12;;;;;;;34.60;19.98;;;;;;;9.50;100.00;101799.59;4861964;29;20037;-72
2021/03/04 06:35:08;;;;;;;41.15;19.80;;;;;;;9.71;100.00;101807.53;4861941;29;20044;-72
2021/03/04 06:37:54;;;;;;;33.88;20.00;;;;;;;9.77;100.00;101807.53;4874238;29;20044;-72
2021/03/04 06:40:40;;;;;;;41.30;19.83;;;;;;;9.58;100.00;101791.78;4861008;29;20048;-73
2021/03/04 06:43:27;;;;;;;37.63;20.58;;;;;;;10.01;100.00;101789.28;4861508;29;20405;-73
2021/03/04 06:46:13;;;;;;;37.20;20.25;;;;;;;10.04;100.00;101794.53;4861056;29;20097;-73
2021/03/04 06:48:59;;;;;;;37.92;20.17;;;;;;;10.05;100.00;101787.59;4861769;29;20045;-73
2021/03/04 06:51:45;;;;;;;40.80;20.63;;;;;;;10.15;100.00;101784.09;4874312;29;20344;-72
2021/03/04 06:54:31;;;;;;;34.78;19.58;;;;;;;9.90;100.00;101790.13;4861577;29;20066;-72
2021/03/04 06:57:17;;;;;;;34.40;20.08;;;;;;;10.55;100.00;101783.22;4861027;29;20116;-72
2021/03/04 07:00:28;;;;;;;37.95;19.73;;;;;;;10.69;100.00;101776.22;4862114;29;20060;-71
2021/03/04 07:03:14;;;;;;;34.10;18.80;;;;;;;10.74;100.00;101781.47;4860759;29;20050;-73
2021/03/04 07:06:03;;;;;;;31.90;19.35;;;;;;;11.11;100.00;101777.91;4860250;29;20493;-72
2021/03/04 07:08:51;;;;;;;31.27;19.10;;;;;;;10.92;100.00;101776.19;4861803;29;20033;-73
2021/03/04 07:11:37;;;;;;;30.25;18.63;;;;;;;11.10;100.00;101777.03;4860605;29;20069;-72
2021/03/04 07:14:23;;;;;;;33.20;19.10;;;;;;;11.31;100.00;101774.34;4860770;29;20029;-74
2021/03/04 07:17:09;;;;;;;34.15;18.27;;;;;;;11.32;100.00;101770.84;4862708;29;20033;-72
2021/03/04 07:20:00;;;;;;;33.45;19.00;;;;;;;11.37;100.00;101769.06;4849083;29;20079;-72
2021/03/04 07:22:51;;;;;;;36.20;18.60;;;;;;;11.32;100.00;101767.31;4863175;29;20029;-72
2021/03/04 07:25:37;;;;;;;37.63;18.58;;;;;;;11.42;100.00;101766.44;4863187;29;20037;-72
2021/03/04 07:28:25;;;;;;;36.15;18.25;;;;;;;11.54;100.00;101750.63;4861768;29;20033;-72
2021/03/04 07:31:12;;;;;;;28.83;17.67;;;;;;;11.85;100.00;101749.63;4860682;29;20059;-72
2021/03/04 07:34:00;;;;;;;31.15;18.50;;;;;;;12.09;100.00;101745.03;4873447;29;20037;-73
2021/03/04 07:36:51;;;;;;;29.20;18.25;;;;;;;12.00;100.00;101742.50;4873663;29;20033;-73
2021/03/04 07:39:39;;;;;;;29.58;18.08;;;;;;;12.29;100.00;101742.25;4861795;29;20136;-73
2021/03/04 07:42:25;;;;;;;30.48;18.30;;;;;;;12.86;100.00;101744.38;4861608;29;20490;-72
2021/03/04 07:45:15;;;;;;;35.13;19.05;;;;;;;12.47;100.00;101737.75;4861218;29;20040;-73
2021/03/04 07:48:10;;;;;;;33.00;19.27;;;;;;;12.72;100.00;101741.00;4873746;29;20040;-74
2021/03/04 07:50:58;;;;;;;34.92;18.98;;;;;;;12.41;100.00;101737.78;4873802;29;20069;-74
2021/03/04 07:53:45;;;;;;;38.80;20.23;;;;;;;12.52;100.00;101737.69;4866992;29;20353;-73
2021/03/04 07:56:31;;;;;;;37.97;20.42;;;;;;;12.35;100.00;101732.59;4865932;29;20077;-75
2021/03/04 07:59:17;;;;;;;31.92;20.13;;;;;;;12.09;100.00;101731.91;4862116;29;20478;-74
2021/03/04 08:02:04;;;;;;;32.58;19.45;;;;;;;12.12;100.00;101723.13;4864871;29;20351;-73
2021/03/04 08:04:49;;;;;;;33.95;19.58;;;;;;;12.43;100.00;101722.00;4868694;29;20033;-72
2021/03/04 08:07:36;;;;;;;33.47;20.02;;;;;;;12.83;100.00;101716.31;4865769;29;20101;-72
2021/03/04 08:10:24;;;;;;;30.98;19.20;;;;;;;13.10;100.00;101708.16;4866412;29;20040;-73
2021/03/04 08:13:10;;;;;;;29.95;19.27;;;;;;;13.82;100.00;101701.00;4877753;29;20037;-72
2021/03/04 08:16:13;;;;;;;37.42;20.15;;;;;;;13.96;100.00;101702.56;4867661;29;20464;-73
2021/03/04 08:18:59;;;;;;;32.53;19.02;;;;;;;14.00;100.00;101703.38;4877149;29;20073;-72
2021/03/04 08:21:45;;;;;;;37.50;21.98;;;;;;;14.61;98.82;101697.09;4863474;29;20041;-74
2021/03/04 08:24:32;;;;;;;29.67;17.80;;;;;;;14.56;99.09;101703.34;4867941;29;20041;-73
2021/03/04 08:27:40;;;;;;;31.15;17.83;;;;;;;14.51;98.72;101690.22;4865701;29;20037;-74
2021/03/04 08:30:37;;;;;;;29.25;17.75;;;;;;;14.68;97.13;101682.00;4866124;29;20073;-75
2021/03/04 08:33:23;;;;;;;29.52;17.50;;;;;;;14.49;98.12;101678.84;4864308;29;20048;-75
2021/03/04 08:36:09;;;;;;;27.52;18.42;;;;;;;14.85;95.25;101674.63;4865389;29;20029;-75
2021/03/04 08:38:57;;;;;;;27.55;17.50;;;;;;;14.59;95.84;101676.91;4864703;29;20036;-75
2021/03/04 08:41:43;;;;;;;23.48;16.15;;;;;;;13.85;95.78;101670.25;4864522;29;20098;-76
2021/03/04 08:44:28;;;;;;;25.80;15.80;;;;;;;14.38;97.21;101672.00;4863253;29;20407;-75
2021/03/04 08:47:16;;;;;;;23.15;14.77;;;;;;;14.58;96.20;101672.50;4864457;29;20100;-75
2021/03/04 08:50:02;;;;;;;23.45;15.93;;;;;;;14.52;97.56;101675.28;4865479;29;20057;-74
2021/03/04 08:52:48;;;;;;;23.08;15.30;;;;;;;14.40;98.65;101672.84;4864897;29;20030;-75
2021/03/04 08:55:54;;;;;;;23.13;14.57;;;;;;;14.33;98.74;101668.59;4863928;29;20029;-74
2021/03/04 08:58:44;;;;;;;19.73;14.10;;;;;;;14.55;98.51;101667.31;4875773;29;20041;-74
2021/03/04 09:01:30;;;;;;;20.80;14.02;;;;;;;14.80;98.33;101653.59;4863559;29;20052;-75
2021/03/04 09:04:21;;;;;;;24.80;14.68;;;;;;;14.89;96.49;101644.66;4863811;29;20057;-74
2021/03/04 09:07:07;;;;;;;23.88;14.10;;;;;;;15.72;93.89;101646.34;4863510;29;20102;-74
2021/03/04 09:10:01;;;;;;;21.38;14.35;;;;;;;16.18;90.50;101646.94;4863831;29;20037;-73
2021/03/04 09:12:47;;;;;;;23.60;13.85;;;;;;;15.85;90.59;101638.97;4863909;29;20029;-74
2021/03/04 09:15:33;;;;;;;21.95;13.25;;;;;;;15.05;95.67;101643.44;4863674;29;20033;-74
2021/03/04 09:18:47;;;;;;;19.80;12.70;;;;;;;15.64;92.31;101640.38;4864249;29;20033;-75
2021/03/04 09:21:34;;;;;;;18.38;12.70;;;;;;;16.12;89.81;101628.56;4863743;29;20075;-74
2021/03/04 09:24:22;;;;;;;19.77;12.75;;;;;;;16.13;88.46;101629.44;4863889;29;20098;-72
2021/03/04 09:27:10;;;;;;;17.27;12.40;;;;;;;15.69;88.58;101625.28;4863089;29;20029;-73
2021/03/04 09:29:56;;;;;;;20.23;13.25;;;;;;;15.44;90.40;101621.47;4863462;29;20086;-73
2021/03/04 09:32:41;;;;;;;20.00;13.40;;;;;;;15.63;87.20;101624.56;4862572;29;20029;-73
2021/03/04 09:35:27;;;;;;;22.38;13.40;;;;;;;15.78;87.86;101613.59;4862667;29;20042;-73
2021/03/04 09:38:14;;;;;;;21.30;13.73;;;;;;;16.13;85.93;101614.47;4862980;29;20092;-73
2021/03/04 09:41:14;;;;;;;20.17;12.63;;;;;;;16.16;82.54;101613.50;4862530;29;20116;-73
2021/03/04 09:44:05;;;;;;;20.20;13.90;;;;;;;16.12;82.08;101603.91;4875107;29;20084;-73
2021/03/04 09:46:50;;;;;;;20.73;13.82;;;;;;;16.71;75.70;101600.53;4861779;29;20037;-72
2021/03/04 09:49:36;;;;;;;24.30;14.70;;;;;;;16.46;78.54;101596.84;4862087;29;20044;-72
2021/03/04 09:52:28;;;;;;;22.60;13.63;;;;;;;16.49;75.72;101580.91;4861564;29;20033;-72
2021/03/04 09:55:17;;;;;;;23.52;14.25;;;;;;;17.06;74.42;101580.06;4874967;29;20021;-73
2021/03/04 09:58:13;;;;;;;20.70;14.40;;;;;;;17.10;74.50;101578.19;4862683;29;20087;-72
2021/03/04 10:01:00;;;;;;;25.63;13.88;;;;;;;17.15;70.87;101573.63;4862706;29;20049;-73
2021/03/04 10:03:46;;;;;;;20.38;12.55;;;;;;;17.27;70.75;101571.47;4862424;29;20093;-74
2021/03/04 10:06:36;;;;;;;20.17;12.98;;;;;;;16.90;71.57;101567.34;4862664;29;20433;-73
2021/03/04 10:09:26;;;;;;;19.38;12.32;;;;;;;17.36;70.12;101557.91;4874647;29;20064;-73
2021/03/04 10:12:12;;;;;;;16.88;11.63;;;;;;;17.54;67.30;101557.38;4862655;29;20375;-73
2021/03/04 10:14:57;;;;;;;15.23;10.90;;;;;;;17.48;66.77;101559.38;4862917;29;20036;-72
2021/03/04 10:17:43;;;;;;;18.25;11.20;;;;;;;17.03;66.82;101553.69;4862449;29;20032;-73
2021/03/04 10:20:29;;;;;;;15.38;10.38;;;;;;;17.47;63.55;101542.59;4861667;29;20132;-73
2021/03/04 10:23:16;;;;;;;19.33;11.52;;;;;;;17.51;63.59;101543.34;4860925;29;20050;-73
2021/03/04 10:26:02;;;;;;;16.90;10.57;;;;;;;17.87;61.61;101539.47;4861314;29;20439;-73
2021/03/04 10:28:48;;;;;;;12.85;9.10;;;;;;;18.00;60.04;101531.03;4863338;29;20029;-73
2021/03/04 10:31:34;;;;;;;16.67;9.57;;;;;;;17.82;57.64;101517.56;4863258;29;20113;-74
2021/03/04 10:34:20;;;;;;;18.90;9.27;;;;;;;17.78;54.73;101522.09;4863130;29;20459;-72
2021/03/04 10:37:05;;;;;;;13.57;9.07;;;;;;;17.98;52.72;101516.97;4873717;29;20051;-73
2021/03/04 10:39:51;;;;;;;13.00;8.68;;;;;;;17.97;50.91;101511.72;4862507;29;20025;-72
2021/03/04 10:42:40;;;;;;;15.43;8.80;;;;;;;17.84;49.55;101497.19;4861871;29;20096;-72
2021/03/04 10:45:26;;;;;;;15.35;8.70;;;;;;;17.88;49.02;101504.94;4861720;29;20043;-73
2021/03/04 10:48:12;;;;;;;12.75;8.27;;;;;;;17.67;46.66;101497.75;4863133;29;20123;-73
2021/03/04 10:50:58;;;;;;;13.05;8.27;;;;;;;17.79;47.10;101481.41;4874624;29;20064;-72
2021/03/04 10:53:47;;;;;;;18.42;9.35;;;;;;;18.27;46.42;101474.34;4862427;29;20021;-73
2021/03/04 10:56:32;;;;;;;17.25;9.55;;;;;;;18.16;46.26;101462.38;4862156;29;20022;-73
2021/03/04 10:59:18;;;;;;;18.05;9.98;;;;;;;18.19;46.41;101457.84;4862908;29;20041;-73
2021/03/04 11:02:04;;;;;;;15.82;9.32;;;;;;;18.59;46.24;101455.47;4847964;29;20030;-73
2021/03/04 11:04:50;;;;;;;13.80;9.18;;;;;;;18.61;46.25;101439.50;4861704;29;20033;-73
2021/03/04 11:07:35;;;;;;;15.50;9.32;;;;;;;18.44;46.40;101444.56;4863022;29;20459;-73
2021/03/04 11:10:21;;;;;;;15.05;9.02;;;;;;;19.28;45.44;101442.97;4862809;29;20037;-72
2021/03/04 11:13:07;;;;;;;14.55;9.00;;;;;;;19.26;44.42;101437.72;4862635;29;20382;-72
2021/03/04 11:15:53;;;;;;;16.55;9.57;;;;;;;19.23;44.25;101440.47;4861242;29;20029;-72
2021/03/04 11:18:38;;;;;;;13.05;8.30;;;;;;;18.89;45.60;101432.16;4862466;29;20539;-73
2021/03/04 11:21:24;;;;;;;15.30;9.07;;;;;;;18.59;46.67;101425.41;4862044;29;20029;-73
2021/03/04 11:24:10;;;;;;;17.38;9.65;;;;;;;18.63;48.00;101419.91;4873586;29;20040;-75
2021/03/04 11:26:56;;;;;;;13.90;9.20;;;;;;;18.66;48.36;101410.97;4873973;29;20069;-73
2021/03/04 11:29:42;;;;;;;12.55;7.95;;;;;;;18.57;47.58;101408.69;4862851;29;20033;-73
2021/03/04 11:32:28;;;;;;;14.60;8.75;;;;;;;18.91;48.77;101409.03;4861283;29;20041;-73
2021/03/04 11:35:14;;;;;;;14.63;9.50;;;;;;;19.05;48.66;101406.72;4866149;29;20026;-73
2021/03/04 11:38:00;;;;;;;15.98;9.80;;;;;;;18.94;48.79;101393.00;4866076;29;20454;-73
2021/03/04 11:40:45;;;;;;;17.63;10.63;;;;;;;19.12;49.33;101392.22;4865341;29;20030;-75
2021/03/04 11:43:31;;;;;;;14.52;9.13;;;;;;;19.32;49.19;101384.31;4864520;29;20224;-73
2021/03/04 11:46:18;;;;;;;13.15;9.10;;;;;;;19.69;48.18;101373.78;4865956;29;20038;-73
2021/03/04 11:49:04;;;;;;;13.02;8.10;;;;;;;19.51;46.41;101373.75;4866067;29;20043;-73
2021/03/04 11:51:52;;;;;;;13.60;8.27;;;;;;;19.99;44.85;101372.44;4864882;29;20112;-74
2021/03/04 11:54:38;;;;;;;13.50;8.43;;;;;;;19.54;44.09;101363.88;4866275;29;20116;-73
2021/03/04 11:57:24;;;;;;;11.93;8.00;;;;;;;20.09;42.37;101364.91;4865393;29;20029;-74
2021/03/04 12:00:10;;;;;;;13.10;8.18;;;;;;;19.94;43.13;101355.81;4865891;29;20343;-73
2021/03/04 12:02:56;;;;;;;13.02;8.15;;;;;;;19.49;43.00;101357.00;4877222;29;20064;-73
2021/03/04 12:05:42;;;;;;;12.00;8.20;;;;;;;19.78;42.59;101346.81;4865545;29;20076;-74
2021/03/04 12:08:27;;;;;;;13.70;8.43;;;;;;;19.93;40.94;101350.56;4865119;29;20054;-73
2021/03/04 12:11:13;;;;;;;13.40;8.23;;;;;;;19.94;39.95;101346.97;4864738;29;20393;-74
2021/03/04 12:13:59;;;;;;;22.65;12.02;;;;;;;19.93;39.75;101339.94;4865675;29;20455;-74
2021/03/04 12:16:45;;;;;;;13.18;9.52;;;;;;;19.48;40.33;101342.00;4863151;29;20044;-73
2021/03/04 12:19:31;;;;;;;14.85;10.32;;;;;;;19.82;41.26;101328.91;4865494;29;20034;-74
2021/03/04 12:22:18;;;;;;;16.48;10.85;;;;;;;19.68;41.38;101331.34;4864375;29;20401;-74
2021/03/04 12:25:05;;;;;;;24.08;13.82;;;;;;;19.49;41.96;101325.13;4864522;29;20108;-74
2021/03/04 12:27:52;;;;;;;31.38;16.98;;;;;;;19.17;41.96;101324.69;4863549;29;20120;-74
2021/03/04 12:30:39;;;;;;;18.98;11.32;;;;;;;19.41;41.27;101314.81;4865060;29;20579;-74
2021/03/04 12:33:25;;;;;;;14.93;8.40;;;;;;;19.73;40.63;101322.22;4851230;29;20041;-73
2021/03/04 12:36:11;;;;;;;14.07;8.70;;;;;;;19.28;40.59;101312.78;4865950;29;20022;-73
2021/03/04 12:38:56;;;;;;;13.00;8.48;;;;;;;18.92;41.70;101313.38;4864877;29;20034;-74
2021/03/04 12:41:43;;;;;;;14.75;8.70;;;;;;;19.58;40.57;101304.31;4865096;29;20029;-73